DAL8635 KSLC-KDEN
Flight info
| Callsign | DAL8635 |
|---|---|
| Flight time | N/A |
| Altitude | 35000 |
| Route | RUGGD3 PERTY KAMPR LONGZ4 |
| Aircraft | A321/M-SDE3FGHIRWY/LB1 |
Departure
| Time | 2026-05-04 02:30 |
|---|---|
| Airport | Salt Lake City International Airport (KSLC) |
Arrival
| Time | N/A |
|---|---|
| Airport | Denver International Airport (KDEN) |
| Time | Latitude | Longitude | Altitude | Speed | Heading |
|---|---|---|---|---|---|
| 2026-05-04 01:59 | 40.78641 | -111.98268 | 4235 ft | 0 kts | 174° |
| 2026-05-04 02:21 | 40.78656 | -111.98270 | 4234 ft | 4 kts | 174° |
| 2026-05-04 02:21 | 40.78682 | -111.98273 | 4233 ft | 4 kts | 184° |
| 2026-05-04 02:21 | 40.78707 | -111.98265 | 4233 ft | 4 kts | 214° |
| 2026-05-04 02:21 | 40.78723 | -111.98241 | 4232 ft | 3 kts | 261° |
| 2026-05-04 02:22 | 40.78724 | -111.98230 | 4234 ft | 0 kts | 264° |
| 2026-05-04 02:23 | 40.78724 | -111.98228 | 4233 ft | 2 kts | 264° |
| 2026-05-04 02:23 | 40.78730 | -111.98207 | 4235 ft | 3 kts | 208° |
| 2026-05-04 02:23 | 40.78738 | -111.98202 | 4233 ft | 0 kts | 185° |
| 2026-05-04 02:24 | 40.78734 | -111.98202 | 4233 ft | 5 kts | 178° |
| 2026-05-04 02:24 | 40.78731 | -111.98106 | 4235 ft | 17 kts | 77° |
| 2026-05-04 02:24 | 40.78741 | -111.97960 | 4233 ft | 15 kts | 85° |
| 2026-05-04 02:24 | 40.78750 | -111.97827 | 4235 ft | 14 kts | 84° |
| 2026-05-04 02:25 | 40.78747 | -111.97711 | 4235 ft | 12 kts | 115° |
| 2026-05-04 02:25 | 40.78684 | -111.97672 | 4235 ft | 10 kts | 175° |
| 2026-05-04 02:25 | 40.78602 | -111.97664 | 4235 ft | 12 kts | 176° |
| 2026-05-04 02:25 | 40.78524 | -111.97656 | 4235 ft | 10 kts | 174° |
| 2026-05-04 02:26 | 40.78457 | -111.97648 | 4234 ft | 9 kts | 174° |
| 2026-05-04 02:26 | 40.78368 | -111.97637 | 4234 ft | 18 kts | 176° |
| 2026-05-04 02:26 | 40.78234 | -111.97622 | 4234 ft | 19 kts | 174° |
| 2026-05-04 02:26 | 40.78111 | -111.97607 | 4233 ft | 17 kts | 175° |
| 2026-05-04 02:27 | 40.78000 | -111.97595 | 4251 ft | 15 kts | 176° |
| 2026-05-04 02:27 | 40.77906 | -111.97558 | 4249 ft | 13 kts | 153° |
| 2026-05-04 02:27 | 40.77825 | -111.97524 | 4252 ft | 11 kts | 173° |
| 2026-05-04 02:27 | 40.77753 | -111.97517 | 4252 ft | 9 kts | 175° |
| 2026-05-04 02:28 | 40.77697 | -111.97510 | 4252 ft | 8 kts | 174° |
| 2026-05-04 02:28 | 40.77649 | -111.97504 | 4252 ft | 6 kts | 174° |
| 2026-05-04 02:28 | 40.77567 | -111.97494 | 4252 ft | 16 kts | 175° |
| 2026-05-04 02:28 | 40.77490 | -111.97484 | 4252 ft | 9 kts | 169° |
| 2026-05-04 02:29 | 40.77449 | -111.97429 | 4252 ft | 10 kts | 96° |
| 2026-05-04 02:29 | 40.77481 | -111.97342 | 4250 ft | 11 kts | 49° |
| 2026-05-04 02:29 | 40.77571 | -111.97325 | 4250 ft | 22 kts | 355° |
| 2026-05-04 02:29 | 40.77926 | -111.97368 | 4250 ft | 83 kts | 354° |
| 2026-05-04 02:30 | 40.78689 | -111.97456 | 4234 ft | 134 kts | 355° |
| 2026-05-04 02:30 | 40.79758 | -111.97584 | 4234 ft | 173 kts | 354° |
| 2026-05-04 02:30 | 40.81005 | -111.97746 | 4609 ft | 179 kts | 355° |
| 2026-05-04 02:30 | 40.82185 | -111.97835 | 5383 ft | 161 kts | 358° |
| 2026-05-04 02:31 | 40.83295 | -111.97962 | 5948 ft | 160 kts | 353° |
| 2026-05-04 02:31 | 40.84381 | -111.98176 | 6493 ft | 156 kts | 350° |
| 2026-05-04 02:31 | 40.85429 | -111.98403 | 6873 ft | 152 kts | 352° |
| 2026-05-04 02:31 | 40.86528 | -111.98584 | 6966 ft | 164 kts | 354° |
| 2026-05-04 02:32 | 40.87698 | -111.98765 | 7025 ft | 175 kts | 353° |
| 2026-05-04 02:32 | 40.88946 | -111.98972 | 7154 ft | 186 kts | 352° |
| 2026-05-04 02:32 | 40.90263 | -111.99193 | 7278 ft | 195 kts | 352° |
| 2026-05-04 02:32 | 40.91637 | -111.99422 | 7398 ft | 203 kts | 352° |
| 2026-05-04 02:33 | 40.93059 | -111.99661 | 7521 ft | 209 kts | 352° |
| 2026-05-04 02:33 | 40.94536 | -111.99911 | 7629 ft | 218 kts | 352° |
| 2026-05-04 02:33 | 40.96070 | -112.00171 | 7769 ft | 226 kts | 352° |
| 2026-05-04 02:33 | 40.97654 | -112.00438 | 7898 ft | 234 kts | 352° |
| 2026-05-04 02:34 | 40.99312 | -112.00719 | 7998 ft | 248 kts | 352° |
| 2026-05-04 02:34 | 41.01078 | -112.00904 | 8126 ft | 262 kts | 2° |
| 2026-05-04 02:34 | 41.02890 | -112.00475 | 8274 ft | 275 kts | 18° |
| 2026-05-04 02:34 | 41.04638 | -111.99325 | 8412 ft | 287 kts | 36° |
| 2026-05-04 02:35 | 41.06100 | -111.97498 | 8661 ft | 293 kts | 52° |
| 2026-05-04 02:35 | 41.07123 | -111.95158 | 8989 ft | 295 kts | 65° |
| 2026-05-04 02:35 | 41.07987 | -111.92675 | 9327 ft | 298 kts | 65° |
| 2026-05-04 02:35 | 41.08862 | -111.90175 | 9686 ft | 300 kts | 65° |
| 2026-05-04 02:36 | 41.09744 | -111.87657 | 10029 ft | 303 kts | 65° |
| 2026-05-04 02:36 | 41.10664 | -111.85028 | 10175 ft | 326 kts | 65° |
| 2026-05-04 02:36 | 41.11544 | -111.82170 | 10307 ft | 345 kts | 75° |
| 2026-05-04 02:36 | 41.11910 | -111.78989 | 10780 ft | 353 kts | 89° |
| 2026-05-04 02:37 | 41.11664 | -111.75743 | 11405 ft | 355 kts | 105° |
| 2026-05-04 02:37 | 41.10813 | -111.72676 | 12102 ft | 355 kts | 119° |
| 2026-05-04 02:37 | 41.09421 | -111.69975 | 12784 ft | 356 kts | 130° |
| 2026-05-04 02:37 | 41.07853 | -111.67430 | 13453 ft | 358 kts | 130° |
| 2026-05-04 02:38 | 41.06266 | -111.64861 | 14105 ft | 361 kts | 130° |
| 2026-05-04 02:38 | 41.04674 | -111.62281 | 14679 ft | 364 kts | 130° |
| 2026-05-04 02:38 | 41.03066 | -111.59669 | 15241 ft | 368 kts | 130° |
| 2026-05-04 02:38 | 41.01443 | -111.57032 | 15802 ft | 371 kts | 130° |
| 2026-05-04 02:39 | 40.99806 | -111.54368 | 16352 ft | 375 kts | 130° |
| 2026-05-04 02:39 | 40.98152 | -111.51681 | 16924 ft | 378 kts | 131° |
| 2026-05-04 02:39 | 40.96482 | -111.48971 | 17474 ft | 382 kts | 130° |
| 2026-05-04 02:39 | 40.94796 | -111.46240 | 18019 ft | 385 kts | 130° |
| 2026-05-04 02:40 | 40.93098 | -111.43479 | 18495 ft | 389 kts | 129° |
| 2026-05-04 02:40 | 40.91651 | -111.40437 | 18973 ft | 394 kts | 117° |
| 2026-05-04 02:40 | 40.90672 | -111.37036 | 19431 ft | 399 kts | 106° |
| 2026-05-04 02:40 | 40.90161 | -111.33414 | 19892 ft | 403 kts | 99° |
| 2026-05-04 02:41 | 40.89741 | -111.29791 | 20337 ft | 406 kts | 100° |
| 2026-05-04 02:41 | 40.89307 | -111.26087 | 20791 ft | 409 kts | 100° |
| 2026-05-04 02:41 | 40.88866 | -111.22356 | 21236 ft | 412 kts | 100° |
| 2026-05-04 02:41 | 40.88419 | -111.18598 | 21681 ft | 416 kts | 100° |
| 2026-05-04 02:42 | 40.87969 | -111.14811 | 22131 ft | 419 kts | 100° |
| 2026-05-04 02:42 | 40.87516 | -111.11002 | 22576 ft | 422 kts | 100° |
| 2026-05-04 02:42 | 40.87058 | -111.07154 | 22995 ft | 426 kts | 100° |
| 2026-05-04 02:42 | 40.86595 | -111.03278 | 23417 ft | 429 kts | 100° |
| 2026-05-04 02:43 | 40.86124 | -110.99376 | 23787 ft | 431 kts | 101° |
| 2026-05-04 02:43 | 40.85647 | -110.95453 | 24142 ft | 434 kts | 101° |
| 2026-05-04 02:43 | 40.85167 | -110.91510 | 24514 ft | 436 kts | 101° |
| 2026-05-04 02:43 | 40.84685 | -110.87547 | 24878 ft | 438 kts | 101° |
| 2026-05-04 02:44 | 40.84200 | -110.83567 | 25260 ft | 440 kts | 101° |
| 2026-05-04 02:44 | 40.83713 | -110.79568 | 25619 ft | 442 kts | 100° |
| 2026-05-04 02:44 | 40.83220 | -110.75546 | 25966 ft | 445 kts | 101° |
| 2026-05-04 02:44 | 40.82722 | -110.71504 | 26314 ft | 447 kts | 101° |
| 2026-05-04 02:45 | 40.82221 | -110.67442 | 26678 ft | 449 kts | 101° |
| 2026-05-04 02:45 | 40.81718 | -110.63364 | 27034 ft | 451 kts | 101° |
| 2026-05-04 02:45 | 40.81212 | -110.59269 | 27370 ft | 453 kts | 101° |
| 2026-05-04 02:45 | 40.80700 | -110.55156 | 27707 ft | 455 kts | 101° |
| 2026-05-04 02:46 | 40.80186 | -110.51036 | 28024 ft | 457 kts | 101° |
| 2026-05-04 02:46 | 40.79666 | -110.46888 | 28346 ft | 459 kts | 101° |
| 2026-05-04 02:46 | 40.79141 | -110.42717 | 28616 ft | 462 kts | 101° |
| 2026-05-04 02:46 | 40.78611 | -110.38524 | 28923 ft | 464 kts | 101° |
| 2026-05-04 02:47 | 40.78077 | -110.34313 | 29199 ft | 466 kts | 101° |
| 2026-05-04 02:47 | 40.77539 | -110.30074 | 29393 ft | 470 kts | 101° |
| 2026-05-04 02:47 | 40.76999 | -110.25803 | 29645 ft | 473 kts | 101° |
| 2026-05-04 02:47 | 40.76463 | -110.21570 | 29931 ft | 475 kts | 101° |
| 2026-05-04 02:48 | 40.75915 | -110.17262 | 30178 ft | 477 kts | 101° |
| 2026-05-04 02:48 | 40.75362 | -110.12937 | 30444 ft | 479 kts | 101° |
| 2026-05-04 02:48 | 40.74801 | -110.08605 | 30754 ft | 479 kts | 101° |
| 2026-05-04 02:48 | 40.74249 | -110.04282 | 31138 ft | 477 kts | 100° |
| 2026-05-04 02:49 | 40.73808 | -109.99949 | 31524 ft | 476 kts | 97° |
| 2026-05-04 02:49 | 40.73490 | -109.95617 | 31927 ft | 475 kts | 96° |
| 2026-05-04 02:49 | 40.73251 | -109.91279 | 32306 ft | 474 kts | 95° |
| 2026-05-04 02:49 | 40.73038 | -109.86950 | 32692 ft | 472 kts | 95° |
| 2026-05-04 02:50 | 40.72816 | -109.82635 | 33101 ft | 471 kts | 95° |
| 2026-05-04 02:50 | 40.72567 | -109.78336 | 33454 ft | 470 kts | 95° |
| 2026-05-04 02:50 | 40.72288 | -109.74047 | 33791 ft | 469 kts | 96° |
| 2026-05-04 02:50 | 40.71988 | -109.69765 | 34099 ft | 469 kts | 96° |
| 2026-05-04 02:51 | 40.71677 | -109.65485 | 34353 ft | 469 kts | 96° |
| 2026-05-04 02:51 | 40.71361 | -109.61201 | 34603 ft | 470 kts | 96° |
| 2026-05-04 02:51 | 40.71046 | -109.56910 | 34815 ft | 471 kts | 96° |
| 2026-05-04 02:51 | 40.70737 | -109.52613 | 34886 ft | 469 kts | 96° |
| 2026-05-04 02:52 | 40.70147 | -109.44096 | 34900 ft | 466 kts | 96° |
| 2026-05-04 02:52 | 40.69546 | -109.35574 | 34887 ft | 468 kts | 96° |
| 2026-05-04 02:53 | 40.68924 | -109.27052 | 34877 ft | 468 kts | 96° |
| 2026-05-04 02:53 | 40.68294 | -109.18522 | 34864 ft | 468 kts | 96° |
| 2026-05-04 02:54 | 40.67665 | -109.09992 | 34867 ft | 468 kts | 96° |
| 2026-05-04 02:54 | 40.67045 | -109.01507 | 34858 ft | 469 kts | 96° |
| 2026-05-04 02:55 | 40.66230 | -108.88659 | 34859 ft | 470 kts | 95° |
| 2026-05-04 02:56 | 40.65702 | -108.80083 | 34858 ft | 470 kts | 95° |
| 2026-05-04 02:56 | 40.65154 | -108.71500 | 34849 ft | 471 kts | 95° |
| 2026-05-04 02:57 | 40.64582 | -108.62908 | 34851 ft | 471 kts | 95° |
| 2026-05-04 02:57 | 40.64008 | -108.54310 | 34854 ft | 471 kts | 96° |
| 2026-05-04 02:58 | 40.63420 | -108.45711 | 34857 ft | 472 kts | 96° |
| 2026-05-04 02:58 | 40.62823 | -108.37109 | 34866 ft | 472 kts | 96° |
| 2026-05-04 02:59 | 40.62321 | -108.29959 | 34859 ft | 473 kts | 96° |
| 2026-05-04 02:59 | 40.61715 | -108.21341 | 34859 ft | 473 kts | 96° |
| 2026-05-04 03:00 | 40.61107 | -108.12717 | 34876 ft | 473 kts | 96° |
| 2026-05-04 03:00 | 40.60491 | -108.04109 | 34876 ft | 473 kts | 96° |
| 2026-05-04 03:01 | 40.59869 | -107.95493 | 34894 ft | 473 kts | 96° |
| 2026-05-04 03:01 | 40.59245 | -107.86877 | 34912 ft | 473 kts | 96° |
| 2026-05-04 03:02 | 40.58612 | -107.78264 | 34955 ft | 473 kts | 96° |
| 2026-05-04 03:02 | 40.57969 | -107.69654 | 34984 ft | 473 kts | 96° |
| 2026-05-04 03:03 | 40.57320 | -107.61038 | 35001 ft | 474 kts | 96° |
| 2026-05-04 03:03 | 40.56676 | -107.52411 | 35004 ft | 474 kts | 96° |
| 2026-05-04 03:04 | 40.56019 | -107.43789 | 35008 ft | 474 kts | 96° |
| 2026-05-04 03:04 | 40.55353 | -107.35153 | 35036 ft | 475 kts | 96° |
| 2026-05-04 03:05 | 40.54684 | -107.26498 | 34788 ft | 486 kts | 96° |
| 2026-05-04 03:05 | 40.54337 | -107.22066 | 34548 ft | 488 kts | 96° |
| 2026-05-04 03:05 | 40.53990 | -107.17637 | 34309 ft | 486 kts | 96° |
| 2026-05-04 03:05 | 40.53643 | -107.13229 | 34070 ft | 484 kts | 96° |
| 2026-05-04 03:06 | 40.53298 | -107.08844 | 33785 ft | 481 kts | 96° |
| 2026-05-04 03:06 | 40.52952 | -107.04479 | 33506 ft | 479 kts | 96° |
| 2026-05-04 03:06 | 40.52605 | -107.00133 | 33221 ft | 478 kts | 96° |
| 2026-05-04 03:06 | 40.52253 | -106.95794 | 32943 ft | 477 kts | 96° |
| 2026-05-04 03:07 | 40.51897 | -106.91472 | 32654 ft | 475 kts | 97° |
| 2026-05-04 03:07 | 40.51542 | -106.87173 | 32433 ft | 472 kts | 96° |
| 2026-05-04 03:07 | 40.51191 | -106.82893 | 32185 ft | 470 kts | 96° |
| 2026-05-04 03:07 | 40.50843 | -106.78635 | 31929 ft | 468 kts | 96° |
| 2026-05-04 03:08 | 40.50496 | -106.74396 | 31666 ft | 466 kts | 96° |
| 2026-05-04 03:08 | 40.50149 | -106.70175 | 31400 ft | 464 kts | 96° |
| 2026-05-04 03:08 | 40.49803 | -106.65966 | 31147 ft | 463 kts | 96° |
| 2026-05-04 03:08 | 40.49455 | -106.61773 | 30880 ft | 462 kts | 96° |
| 2026-05-04 03:09 | 40.49103 | -106.57585 | 30621 ft | 460 kts | 96° |
| 2026-05-04 03:09 | 40.48750 | -106.53412 | 30363 ft | 459 kts | 96° |
| 2026-05-04 03:09 | 40.48395 | -106.49252 | 30107 ft | 457 kts | 96° |
| 2026-05-04 03:09 | 40.48031 | -106.45117 | 29817 ft | 455 kts | 97° |
| 2026-05-04 03:10 | 40.47662 | -106.41010 | 29515 ft | 453 kts | 97° |
| 2026-05-04 03:10 | 40.47291 | -106.36913 | 29232 ft | 451 kts | 97° |
| 2026-05-04 03:10 | 40.46920 | -106.32835 | 28958 ft | 448 kts | 96° |
| 2026-05-04 03:10 | 40.46553 | -106.28793 | 28524 ft | 444 kts | 96° |
| 2026-05-04 03:11 | 40.46187 | -106.24787 | 28017 ft | 440 kts | 96° |
| 2026-05-04 03:11 | 40.45819 | -106.20817 | 27531 ft | 436 kts | 96° |
| 2026-05-04 03:11 | 40.45461 | -106.16937 | 27070 ft | 432 kts | 96° |
| 2026-05-04 03:11 | 40.45099 | -106.12992 | 26669 ft | 428 kts | 96° |
| 2026-05-04 03:12 | 40.44758 | -106.09151 | 26398 ft | 430 kts | 96° |
| 2026-05-04 03:12 | 40.44421 | -106.05251 | 26092 ft | 429 kts | 96° |
| 2026-05-04 03:12 | 40.44089 | -106.01366 | 25776 ft | 427 kts | 96° |
| 2026-05-04 03:12 | 40.43756 | -105.97498 | 25467 ft | 426 kts | 96° |
| 2026-05-04 03:13 | 40.43421 | -105.93640 | 25158 ft | 425 kts | 96° |
| 2026-05-04 03:13 | 40.43058 | -105.89800 | 24859 ft | 423 kts | 98° |
| 2026-05-04 03:13 | 40.42575 | -105.86003 | 24444 ft | 420 kts | 100° |
| 2026-05-04 03:13 | 40.41991 | -105.82256 | 24069 ft | 418 kts | 102° |
| 2026-05-04 03:14 | 40.41355 | -105.78546 | 23682 ft | 415 kts | 103° |
| 2026-05-04 03:14 | 40.40710 | -105.74871 | 23247 ft | 413 kts | 102° |
| 2026-05-04 03:14 | 40.40077 | -105.71208 | 22859 ft | 410 kts | 102° |
| 2026-05-04 03:14 | 40.39467 | -105.67563 | 22473 ft | 408 kts | 102° |
| 2026-05-04 03:15 | 40.38878 | -105.63935 | 22083 ft | 405 kts | 101° |
| 2026-05-04 03:15 | 40.38305 | -105.60320 | 21622 ft | 405 kts | 101° |
| 2026-05-04 03:15 | 40.37736 | -105.56708 | 21090 ft | 403 kts | 101° |
| 2026-05-04 03:15 | 40.37172 | -105.53118 | 20597 ft | 401 kts | 101° |
| 2026-05-04 03:16 | 40.36608 | -105.49546 | 20117 ft | 398 kts | 101° |
| 2026-05-04 03:16 | 40.36043 | -105.46010 | 19636 ft | 397 kts | 101° |
| 2026-05-04 03:16 | 40.35476 | -105.42501 | 19323 ft | 390 kts | 102° |
| 2026-05-04 03:16 | 40.34885 | -105.39088 | 19195 ft | 376 kts | 107° |
| 2026-05-04 03:17 | 40.33944 | -105.35981 | 18681 ft | 361 kts | 120° |
| 2026-05-04 03:17 | 40.32558 | -105.33294 | 18289 ft | 353 kts | 130° |
| 2026-05-04 03:17 | 40.31038 | -105.30776 | 18026 ft | 351 kts | 129° |
| 2026-05-04 03:17 | 40.29546 | -105.28264 | 17796 ft | 349 kts | 129° |
| 2026-05-04 03:18 | 40.28057 | -105.25740 | 17534 ft | 350 kts | 129° |
| 2026-05-04 03:18 | 40.26570 | -105.23220 | 17292 ft | 349 kts | 129° |
| 2026-05-04 03:18 | 40.25089 | -105.20714 | 17029 ft | 347 kts | 129° |
| 2026-05-04 03:18 | 40.23613 | -105.18220 | 16774 ft | 346 kts | 128° |
| 2026-05-04 03:19 | 40.22146 | -105.15745 | 16520 ft | 344 kts | 128° |
| 2026-05-04 03:19 | 40.20680 | -105.13275 | 16264 ft | 342 kts | 128° |
| 2026-05-04 03:19 | 40.19224 | -105.10827 | 16010 ft | 341 kts | 128° |
| 2026-05-04 03:19 | 40.17772 | -105.08384 | 15753 ft | 339 kts | 128° |
| 2026-05-04 03:20 | 40.16347 | -105.05984 | 15526 ft | 338 kts | 128° |
| 2026-05-04 03:20 | 40.14922 | -105.03550 | 15271 ft | 336 kts | 124° |
| 2026-05-04 03:20 | 40.13788 | -105.00895 | 15003 ft | 334 kts | 112° |
| 2026-05-04 03:20 | 40.12848 | -104.98128 | 14630 ft | 333 kts | 113° |
| 2026-05-04 03:21 | 40.11905 | -104.95376 | 14389 ft | 331 kts | 113° |
| 2026-05-04 03:21 | 40.10966 | -104.92641 | 14170 ft | 330 kts | 113° |